createdAt,value
2019-03-11T00:00:29.767Z,1.90
2019-03-11T00:01:29.954Z,1.80
2019-03-11T00:02:30.147Z,1.90
2019-03-11T00:03:30.330Z,1.80
2019-03-11T00:04:30.512Z,1.50
2019-03-11T00:05:30.712Z,1.60
2019-03-11T00:06:30.888Z,1.80
2019-03-11T00:07:31.069Z,1.80
2019-03-11T00:08:31.239Z,1.80
2019-03-11T00:09:31.428Z,1.90
2019-03-11T00:10:31.611Z,2.00
2019-03-11T00:11:31.794Z,2.10
2019-03-11T00:12:31.969Z,1.80
2019-03-11T00:13:32.150Z,2.00
2019-03-11T00:14:32.333Z,2.20
2019-03-11T00:15:32.511Z,1.50
2019-03-11T00:16:32.697Z,1.70
2019-03-11T00:17:32.864Z,1.80
2019-03-11T00:18:33.046Z,1.90
2019-03-11T00:19:33.221Z,1.50
2019-03-11T00:20:33.407Z,1.70
2019-03-11T00:21:33.587Z,1.70
2019-03-11T00:22:33.764Z,1.90
2019-03-11T00:23:33.946Z,1.80
2019-03-11T00:24:34.121Z,2.00
2019-03-11T00:25:34.308Z,1.60
2019-03-11T00:26:34.485Z,1.80
2019-03-11T00:27:34.660Z,1.80
2019-03-11T00:28:34.837Z,1.80
2019-03-11T00:29:35.023Z,1.60
2019-03-11T00:30:35.209Z,1.90
2019-03-11T00:31:35.382Z,1.90
2019-03-11T00:32:35.562Z,2.20
2019-03-11T00:33:35.765Z,1.80
2019-03-11T00:34:35.943Z,1.80
2019-03-11T00:35:36.127Z,2.10
2019-03-11T00:36:36.305Z,1.90
2019-03-11T00:37:36.485Z,2.30
2019-03-11T00:38:36.665Z,2.20
2019-03-11T00:39:36.842Z,2.10
2019-03-11T00:40:37.033Z,2.10
2019-03-11T00:41:37.237Z,2.10
2019-03-11T00:42:37.402Z,2.00
2019-03-11T00:43:37.580Z,2.00
2019-03-11T00:44:37.767Z,2.30
2019-03-11T00:45:37.944Z,2.50
2019-03-11T00:46:38.123Z,2.30
2019-03-11T00:47:38.297Z,2.50
2019-03-11T00:48:38.478Z,3.00
2019-03-11T00:49:38.655Z,2.70
2019-03-11T00:50:38.829Z,2.00
2019-03-11T00:51:39.017Z,2.40
2019-03-11T00:52:39.255Z,2.60
2019-03-11T00:53:39.377Z,2.20
2019-03-11T00:54:39.551Z,2.70
2019-03-11T00:55:39.733Z,2.70
2019-03-11T00:56:39.939Z,2.60
2019-03-11T00:57:40.112Z,2.50
2019-03-11T00:58:40.284Z,2.80
2019-03-11T00:59:40.482Z,2.70
2019-03-11T01:00:40.662Z,2.80
2019-03-11T01:01:40.842Z,2.80
2019-03-11T01:02:41.022Z,2.50
2019-03-11T01:03:41.203Z,2.70
2019-03-11T01:04:41.391Z,3.20
2019-03-11T01:05:41.570Z,3.10
2019-03-11T01:06:41.748Z,2.90
2019-03-11T01:07:41.927Z,3.00
2019-03-11T01:08:42.109Z,2.80
2019-03-11T01:09:42.290Z,3.00
2019-03-11T01:10:42.483Z,3.00
2019-03-11T01:11:42.669Z,2.60
2019-03-11T01:12:42.850Z,3.10
2019-03-11T01:13:43.022Z,3.10
2019-03-11T01:14:43.201Z,2.70
2019-03-11T01:15:43.378Z,3.30
2019-03-11T01:16:43.559Z,3.00
2019-03-11T01:17:43.735Z,2.80
2019-03-11T01:18:43.917Z,3.10
2019-03-11T01:19:44.094Z,2.40
2019-03-11T01:20:44.273Z,3.00
2019-03-11T01:21:44.457Z,2.40
2019-03-11T01:22:44.637Z,2.70
2019-03-11T01:23:44.828Z,2.50
2019-03-11T01:24:45.006Z,3.00
2019-03-11T01:25:45.235Z,2.30
2019-03-11T01:26:45.420Z,2.60
2019-03-11T01:27:45.541Z,2.20
2019-03-11T01:28:45.720Z,2.50
2019-03-11T01:29:45.905Z,2.10
2019-03-11T01:30:46.078Z,2.70
2019-03-11T01:31:46.257Z,2.30
2019-03-11T01:32:46.436Z,2.60
2019-03-11T01:33:46.617Z,2.10
2019-03-11T01:34:46.796Z,2.50
2019-03-11T01:35:47.037Z,2.50
2019-03-11T01:36:47.153Z,2.60
2019-03-11T01:37:47.334Z,2.60
2019-03-11T01:38:47.521Z,2.20
2019-03-11T01:39:47.700Z,2.30
2019-03-11T01:40:47.926Z,2.10
2019-03-11T01:41:48.088Z,2.20
2019-03-11T01:42:48.250Z,2.30
2019-03-11T01:43:48.438Z,2.50
2019-03-11T01:44:48.612Z,2.30
2019-03-11T01:45:48.793Z,2.50
2019-03-11T01:46:48.969Z,2.50
2019-03-11T01:47:49.146Z,2.40
2019-03-11T01:48:49.329Z,2.30
2019-03-11T01:49:49.507Z,2.20
2019-03-11T01:50:49.690Z,2.40
2019-03-11T01:51:49.870Z,2.60
2019-03-11T01:52:50.045Z,2.30
2019-03-11T01:53:50.228Z,2.60
2019-03-11T01:54:50.413Z,2.20
2019-03-11T01:55:50.587Z,2.50
2019-03-11T01:56:50.768Z,2.40
2019-03-11T01:57:50.957Z,2.50
2019-03-11T01:58:51.141Z,2.40
2019-03-11T01:59:51.336Z,2.40
2019-03-11T02:00:51.513Z,2.60
2019-03-11T02:01:51.689Z,2.70
2019-03-11T02:02:51.881Z,2.40
2019-03-11T02:03:52.051Z,2.00
2019-03-11T02:04:52.235Z,2.30
2019-03-11T02:05:52.414Z,2.10
2019-03-11T02:06:52.594Z,2.50
2019-03-11T02:07:52.774Z,2.60
2019-03-11T02:08:52.964Z,2.20
2019-03-11T02:09:53.137Z,2.40
2019-03-11T02:10:53.319Z,2.20
2019-03-11T02:11:53.506Z,2.40
2019-03-11T02:12:53.679Z,2.80
2019-03-11T02:13:53.865Z,2.60
2019-03-11T02:14:54.096Z,2.80
2019-03-11T02:15:54.253Z,2.40
2019-03-11T02:16:54.437Z,2.50
2019-03-11T02:17:54.616Z,2.90
2019-03-11T02:18:54.812Z,2.70
2019-03-11T02:19:54.995Z,2.50
2019-03-11T02:20:55.177Z,2.70
2019-03-11T02:21:55.355Z,2.50
2019-03-11T02:22:55.546Z,2.70
2019-03-11T02:23:55.733Z,2.30
2019-03-11T02:24:55.912Z,2.50
2019-03-11T02:25:56.086Z,2.40
2019-03-11T02:26:56.266Z,2.80
2019-03-11T02:27:56.446Z,2.40
2019-03-11T02:28:56.623Z,2.30
2019-03-11T02:29:56.813Z,3.00
2019-03-11T02:30:56.997Z,2.50
2019-03-11T02:31:57.185Z,2.90
2019-03-11T02:32:57.355Z,2.70
2019-03-11T02:33:57.535Z,2.80
2019-03-11T02:34:57.748Z,2.70
2019-03-11T02:35:57.919Z,2.40
2019-03-11T02:36:58.096Z,3.20
2019-03-11T02:37:58.286Z,2.60
2019-03-11T02:38:58.455Z,2.90
2019-03-11T02:39:58.638Z,2.90
2019-03-11T02:40:58.820Z,3.60
2019-03-11T02:41:58.995Z,2.70
2019-03-11T02:42:59.180Z,2.70
2019-03-11T02:43:59.355Z,2.70
2019-03-11T02:44:59.540Z,2.40
2019-03-11T02:45:59.726Z,2.80
2019-03-11T02:46:59.916Z,2.80
2019-03-11T02:48:00.092Z,2.90
2019-03-11T02:49:00.272Z,2.70
2019-03-11T02:50:00.445Z,2.50
2019-03-11T02:51:00.626Z,2.30
2019-03-11T02:52:00.807Z,2.80
2019-03-11T02:53:00.989Z,2.80
2019-03-11T02:54:01.166Z,2.90
2019-03-11T02:55:01.356Z,3.10
2019-03-11T02:56:01.536Z,3.20
2019-03-11T02:57:01.711Z,2.70
2019-03-11T02:58:01.895Z,2.90
2019-03-11T02:59:02.072Z,2.70
2019-03-11T03:00:02.257Z,3.10
2019-03-11T03:01:02.440Z,3.20
2019-03-11T03:02:02.631Z,3.00
2019-03-11T03:03:02.794Z,2.60
2019-03-11T03:04:02.982Z,2.80
2019-03-11T03:05:03.169Z,3.40
2019-03-11T03:06:03.348Z,2.60
2019-03-11T03:07:03.534Z,2.90
2019-03-11T03:08:03.731Z,2.60
2019-03-11T03:09:03.908Z,3.20
2019-03-11T03:10:04.079Z,2.30
2019-03-11T03:11:04.272Z,2.40
2019-03-11T03:12:04.449Z,2.30
2019-03-11T03:13:04.628Z,2.00
2019-03-11T03:14:04.813Z,2.10
2019-03-11T03:15:04.984Z,2.00
2019-03-11T03:16:05.153Z,1.80
2019-03-11T03:17:05.334Z,1.60
2019-03-11T03:18:05.516Z,1.90
2019-03-11T03:19:05.705Z,1.60
2019-03-11T03:20:05.889Z,1.70
2019-03-11T03:21:06.065Z,1.80
2019-03-11T03:22:06.263Z,1.70
2019-03-11T03:23:06.475Z,1.60
2019-03-11T03:24:06.659Z,1.60
2019-03-11T03:25:06.844Z,1.20
2019-03-11T03:26:07.025Z,1.40
2019-03-11T03:27:07.204Z,1.40
2019-03-11T03:28:07.568Z,1.20
2019-03-11T03:29:07.557Z,1.50
2019-03-11T03:30:07.858Z,1.30
2019-03-11T03:31:07.928Z,1.10
2019-03-11T03:32:08.091Z,1.00
2019-03-11T03:33:08.280Z,1.20
2019-03-11T03:34:08.450Z,1.20
2019-03-11T03:35:08.693Z,1.30
2019-03-11T03:36:08.801Z,1.40
2019-03-11T03:37:08.979Z,1.00
2019-03-11T03:38:09.165Z,1.20
2019-03-11T03:39:09.352Z,1.10
2019-03-11T03:40:09.524Z,1.40
2019-03-11T03:41:09.698Z,1.00
2019-03-11T03:42:13.025Z,1.10
2019-03-11T03:43:10.068Z,0.90
2019-03-11T03:44:10.255Z,1.10
2019-03-11T03:45:10.422Z,1.10
2019-03-11T03:46:18.899Z,1.00
2019-03-11T03:47:10.789Z,1.10
2019-03-11T03:48:10.967Z,1.10
2019-03-11T03:49:11.147Z,1.10
2019-03-11T03:50:11.317Z,1.00
2019-03-11T03:51:11.494Z,1.00
2019-03-11T03:52:11.672Z,1.20
2019-03-11T03:53:11.848Z,1.00
2019-03-11T03:54:12.034Z,0.90
2019-03-11T03:55:12.234Z,1.00
2019-03-11T03:56:12.401Z,0.90
2019-03-11T03:57:12.598Z,1.10
2019-03-11T03:58:12.813Z,1.10
2019-03-11T03:59:12.977Z,0.90
2019-03-11T04:00:13.164Z,1.20
2019-03-11T04:01:13.345Z,1.10
2019-03-11T04:02:13.517Z,1.10
2019-03-11T04:03:13.688Z,1.10
2019-03-11T04:04:13.886Z,0.90
2019-03-11T04:05:14.077Z,1.00
2019-03-11T04:06:14.251Z,1.10
2019-03-11T04:07:14.428Z,1.00
2019-03-11T04:08:14.630Z,1.10
2019-03-11T04:09:14.784Z,1.10
2019-03-11T04:10:14.973Z,1.00
2019-03-11T04:11:15.143Z,1.10
2019-03-11T04:12:15.321Z,1.00
2019-03-11T04:13:15.506Z,1.00
2019-03-11T04:14:15.686Z,1.10
2019-03-11T04:15:15.884Z,1.10
2019-03-11T04:16:16.036Z,1.20
2019-03-11T04:17:16.217Z,1.20
2019-03-11T04:18:16.398Z,1.50
2019-03-11T04:19:16.575Z,2.00
2019-03-11T04:20:16.751Z,2.00
2019-03-11T04:21:16.932Z,3.10
2019-03-11T04:22:17.114Z,2.90
2019-03-11T04:23:17.292Z,2.20
2019-03-11T04:24:17.472Z,2.20
2019-03-11T04:25:17.660Z,2.00
2019-03-11T04:26:17.832Z,2.40
2019-03-11T04:27:18.010Z,2.50
2019-03-11T04:28:18.190Z,2.40
2019-03-11T04:29:18.362Z,2.80
2019-03-11T04:30:18.540Z,1.70
2019-03-11T04:31:18.723Z,1.40
2019-03-11T04:32:18.906Z,1.70
2019-03-11T04:33:19.078Z,2.40
2019-03-11T04:34:19.271Z,1.80
2019-03-11T04:35:19.447Z,2.00
2019-03-11T04:36:19.627Z,2.30
2019-03-11T04:37:19.804Z,2.00
2019-03-11T04:38:19.977Z,1.30
2019-03-11T04:39:20.156Z,1.10
2019-03-11T04:40:20.338Z,1.10
2019-03-11T04:41:20.515Z,1.40
2019-03-11T04:42:20.687Z,1.00
2019-03-11T04:43:20.861Z,1.80
2019-03-11T04:44:21.043Z,6.30
2019-03-11T04:45:21.229Z,5.50
2019-03-11T04:46:21.408Z,4.00
2019-03-11T04:47:21.594Z,3.30
2019-03-11T04:48:21.778Z,1.80
2019-03-11T04:49:21.955Z,1.30
2019-03-11T04:50:22.135Z,1.00
2019-03-11T04:51:22.325Z,1.20
2019-03-11T04:52:22.507Z,1.40
2019-03-11T04:53:22.701Z,1.20
2019-03-11T04:54:22.881Z,1.10
2019-03-11T04:55:23.065Z,0.90
2019-03-11T04:56:23.244Z,0.90
2019-03-11T04:57:23.641Z,1.50
2019-03-11T04:58:23.606Z,1.40
2019-03-11T04:59:23.797Z,1.30
2019-03-11T05:00:23.969Z,1.90
2019-03-11T05:01:24.151Z,2.40
2019-03-11T05:02:24.330Z,1.60
2019-03-11T05:03:24.513Z,1.40
2019-03-11T05:04:24.699Z,1.20
2019-03-11T05:05:24.879Z,1.60
2019-03-11T05:06:25.060Z,2.60
2019-03-11T05:07:25.242Z,5.40
2019-03-11T05:08:25.423Z,3.10
2019-03-11T05:09:25.602Z,1.70
2019-03-11T05:10:25.795Z,1.30
2019-03-11T05:11:25.955Z,1.80
2019-03-11T05:12:26.159Z,2.00
2019-03-11T05:13:26.348Z,1.30
2019-03-11T05:14:26.525Z,1.50
2019-03-11T05:15:26.692Z,1.30
2019-03-11T05:16:26.884Z,1.40
2019-03-11T05:17:27.063Z,1.60
2019-03-11T05:18:27.237Z,1.50
2019-03-11T05:19:27.420Z,1.80
2019-03-11T05:20:27.599Z,1.70
2019-03-11T05:21:27.784Z,1.40
2019-03-11T05:22:27.963Z,1.90
2019-03-11T05:23:28.140Z,1.30
2019-03-11T05:24:28.323Z,1.60
2019-03-11T05:25:28.499Z,1.80
2019-03-11T05:26:28.685Z,1.90
2019-03-11T05:27:28.860Z,1.60
2019-03-11T05:28:29.047Z,1.90
2019-03-11T05:29:29.226Z,1.50
2019-03-11T05:30:29.402Z,1.60
2019-03-11T05:31:29.581Z,1.60
2019-03-11T05:32:29.762Z,2.10
2019-03-11T05:33:29.952Z,2.80
2019-03-11T05:34:30.138Z,2.20
2019-03-11T05:35:30.312Z,2.60
2019-03-11T05:36:30.493Z,3.80
2019-03-11T05:37:30.670Z,4.20
2019-03-11T05:38:30.856Z,2.90
2019-03-11T05:39:31.035Z,2.90
2019-03-11T05:40:31.223Z,3.20
2019-03-11T05:41:31.400Z,2.90
2019-03-11T05:42:31.585Z,3.10
2019-03-11T05:43:31.769Z,2.90
2019-03-11T05:44:31.948Z,3.10
2019-03-11T05:45:32.127Z,2.80
2019-03-11T05:46:32.304Z,2.70
2019-03-11T05:47:32.497Z,2.80
2019-03-11T05:48:32.686Z,2.90
2019-03-11T05:49:32.864Z,3.00
2019-03-11T05:50:33.044Z,3.10
2019-03-11T05:51:33.239Z,3.30
2019-03-11T05:52:33.423Z,3.40
2019-03-11T05:53:33.597Z,3.00
2019-03-11T05:54:33.773Z,3.10
2019-03-11T05:55:33.959Z,2.90
2019-03-11T05:56:34.138Z,3.40
2019-03-11T05:57:34.319Z,2.90
2019-03-11T05:58:34.500Z,2.60
2019-03-11T05:59:34.678Z,3.00
2019-03-11T06:00:34.855Z,2.60
2019-03-11T06:01:35.038Z,3.20
2019-03-11T06:02:36.534Z,2.90
2019-03-11T06:03:35.398Z,2.50
2019-03-11T06:04:35.575Z,2.60
2019-03-11T06:05:35.758Z,3.00
2019-03-11T06:06:35.937Z,2.70
2019-03-11T06:07:36.118Z,2.70
2019-03-11T06:08:36.295Z,2.60
2019-03-11T06:09:36.476Z,2.60
2019-03-11T06:10:36.661Z,2.50
2019-03-11T06:11:36.922Z,2.50
2019-03-11T06:12:37.033Z,2.60
2019-03-11T06:13:37.213Z,2.30
2019-03-11T06:14:37.386Z,2.20
2019-03-11T06:15:37.570Z,2.20
2019-03-11T06:16:37.751Z,2.20
2019-03-11T06:17:38.006Z,2.20
2019-03-11T06:18:38.115Z,2.20
2019-03-11T06:19:38.294Z,2.00
2019-03-11T06:20:38.482Z,2.00
2019-03-11T06:21:38.655Z,2.10
2019-03-11T06:22:38.834Z,2.10
2019-03-11T06:23:39.010Z,2.10
2019-03-11T06:24:39.189Z,2.40
2019-03-11T06:25:39.368Z,2.20
2019-03-11T06:26:39.561Z,2.50
2019-03-11T06:27:39.731Z,2.30
2019-03-11T06:28:39.912Z,1.80
2019-03-11T06:29:40.095Z,1.80
2019-03-11T06:30:40.282Z,2.10
2019-03-11T06:31:40.451Z,1.70
2019-03-11T06:32:40.636Z,2.10
2019-03-11T06:33:40.885Z,1.70
2019-03-11T06:34:41.000Z,2.30
2019-03-11T06:35:41.177Z,2.50
2019-03-11T06:36:41.354Z,2.90
2019-03-11T06:37:41.532Z,2.70
2019-03-11T06:38:41.727Z,2.50
2019-03-11T06:39:41.894Z,2.50
2019-03-11T06:40:42.076Z,2.30
2019-03-11T06:41:42.260Z,2.20
2019-03-11T06:42:42.451Z,2.20
2019-03-11T06:43:42.709Z,2.60
2019-03-11T06:44:42.814Z,2.40
2019-03-11T06:45:42.999Z,2.50
2019-03-11T06:46:45.792Z,2.40
2019-03-11T06:47:43.364Z,2.80
2019-03-11T06:48:43.545Z,3.50
2019-03-11T06:49:43.722Z,3.80
2019-03-11T06:50:43.924Z,3.20
2019-03-11T06:51:44.089Z,3.20
2019-03-11T06:52:44.269Z,3.40
2019-03-11T06:53:44.452Z,3.30
2019-03-11T06:54:44.638Z,3.40
2019-03-11T06:55:44.815Z,3.30
2019-03-11T06:56:45.011Z,3.00
2019-03-11T06:57:45.178Z,4.10
2019-03-11T06:58:45.364Z,3.90
2019-03-11T06:59:45.538Z,3.90
2019-03-11T07:00:45.720Z,3.60
2019-03-11T07:01:45.909Z,4.10
2019-03-11T07:02:46.085Z,3.90
2019-03-11T07:03:46.261Z,3.30
2019-03-11T07:04:46.440Z,3.90
2019-03-11T07:05:46.621Z,3.50
2019-03-11T07:06:46.917Z,4.40
2019-03-11T07:07:46.976Z,3.50
2019-03-11T07:08:47.163Z,3.60
2019-03-11T07:09:47.341Z,3.80
2019-03-11T07:10:47.520Z,4.40
2019-03-11T07:11:47.701Z,3.50
2019-03-11T07:12:47.887Z,4.30
2019-03-11T07:13:48.060Z,3.80
2019-03-11T07:14:48.246Z,4.00
2019-03-11T07:15:48.429Z,4.20
2019-03-11T07:16:48.608Z,3.90
2019-03-11T07:17:48.784Z,3.90
2019-03-11T07:18:48.974Z,4.10
2019-03-11T07:19:49.159Z,3.70
2019-03-11T07:20:49.339Z,3.80
2019-03-11T07:21:49.523Z,3.80
2019-03-11T07:22:49.704Z,4.30
2019-03-11T07:23:49.884Z,3.70
2019-03-11T07:24:50.068Z,4.00
2019-03-11T07:25:50.242Z,3.40
2019-03-11T07:26:50.421Z,2.90
2019-03-11T07:27:50.602Z,3.00
2019-03-11T07:28:50.780Z,3.10
2019-03-11T07:29:50.966Z,3.20
2019-03-11T07:30:51.148Z,3.10
2019-03-11T07:31:51.316Z,3.50
2019-03-11T07:32:51.545Z,3.00
2019-03-11T07:33:51.679Z,3.40
2019-03-11T07:34:51.872Z,2.80
2019-03-11T07:35:52.062Z,3.00
2019-03-11T07:36:52.235Z,2.80
2019-03-11T07:37:52.424Z,2.60
2019-03-11T07:38:52.603Z,2.80
2019-03-11T07:39:52.809Z,2.80
2019-03-11T07:40:52.974Z,2.80
2019-03-11T07:41:53.159Z,2.90
2019-03-11T07:42:53.341Z,2.60
2019-03-11T07:43:53.521Z,2.70
2019-03-11T07:44:53.697Z,3.00
2019-03-11T07:45:53.877Z,2.80
2019-03-11T07:46:54.058Z,3.20
2019-03-11T07:47:54.240Z,3.00
2019-03-11T07:48:54.427Z,3.10
2019-03-11T07:49:54.608Z,3.50
2019-03-11T07:50:54.796Z,3.30
2019-03-11T07:51:54.973Z,3.20
2019-03-11T07:52:55.153Z,3.50
2019-03-11T07:53:55.627Z,3.00
2019-03-11T07:54:55.554Z,3.70
2019-03-11T07:55:55.735Z,3.70
2019-03-11T07:56:55.913Z,3.50
2019-03-11T07:57:56.098Z,3.10
2019-03-11T07:58:56.277Z,3.10
2019-03-11T07:59:56.457Z,3.00
2019-03-11T08:00:56.657Z,3.00
2019-03-11T08:01:56.828Z,2.90
2019-03-11T08:02:57.000Z,3.10
2019-03-11T08:03:57.189Z,3.10
2019-03-11T08:04:57.365Z,3.30
2019-03-11T08:05:57.548Z,2.90
2019-03-11T08:06:57.746Z,3.70
2019-03-11T08:07:57.932Z,3.50
2019-03-11T08:08:58.099Z,4.50
2019-03-11T08:09:58.285Z,2.90
2019-03-11T08:10:58.472Z,2.70
2019-03-11T08:11:58.659Z,2.70
2019-03-11T08:12:58.848Z,2.50
2019-03-11T08:13:59.025Z,2.40
2019-03-11T08:14:59.216Z,2.10
2019-03-11T08:15:59.401Z,2.20
2019-03-11T08:16:59.587Z,2.70
2019-03-11T08:17:59.771Z,2.80
2019-03-11T08:18:59.962Z,2.20
2019-03-11T08:20:00.385Z,2.00
2019-03-11T08:21:00.335Z,2.20
2019-03-11T08:22:00.525Z,2.40
2019-03-11T08:23:00.720Z,2.40
2019-03-11T08:24:00.917Z,2.30
2019-03-11T08:25:01.104Z,2.60
2019-03-11T08:26:01.296Z,3.00
2019-03-11T08:27:01.488Z,3.40
2019-03-11T08:28:01.678Z,3.80
2019-03-11T08:29:01.866Z,3.10
2019-03-11T08:30:02.062Z,2.40
2019-03-11T08:31:02.252Z,2.70
2019-03-11T08:32:02.447Z,2.80
2019-03-11T08:33:02.644Z,2.60
2019-03-11T08:34:02.826Z,3.10
2019-03-11T08:35:03.023Z,2.90
2019-03-11T08:36:03.203Z,3.30
2019-03-11T08:37:03.390Z,3.00
2019-03-11T08:38:05.354Z,3.00
2019-03-11T08:39:03.766Z,2.80
2019-03-11T08:40:03.963Z,2.80
2019-03-11T08:41:04.145Z,2.90
2019-03-11T08:42:04.341Z,2.40
2019-03-11T08:43:04.531Z,2.50
2019-03-11T08:44:04.717Z,2.90
2019-03-11T08:45:04.907Z,2.80
2019-03-11T08:46:05.098Z,2.60
2019-03-11T08:47:05.279Z,2.60
2019-03-11T08:48:05.467Z,3.20
2019-03-11T08:49:05.662Z,2.80
2019-03-11T08:50:05.840Z,3.10
2019-03-11T08:51:06.025Z,2.90
2019-03-11T08:52:06.211Z,2.80
2019-03-11T08:53:06.388Z,3.50
2019-03-11T08:54:06.572Z,3.30
2019-03-11T08:55:06.759Z,2.70
2019-03-11T08:56:06.945Z,2.50
2019-03-11T08:57:07.131Z,2.50
2019-03-11T08:58:07.305Z,3.00
2019-03-11T08:59:07.489Z,3.10
2019-03-11T09:00:07.672Z,3.00
2019-03-11T09:01:07.854Z,2.90
2019-03-11T09:02:08.034Z,2.80
2019-03-11T09:03:08.218Z,2.70
2019-03-11T09:04:08.405Z,3.00
2019-03-11T09:05:08.588Z,2.90
2019-03-11T09:06:08.771Z,2.80
2019-03-11T09:07:08.960Z,3.00
2019-03-11T09:08:09.139Z,2.70
2019-03-11T09:09:09.319Z,2.80
2019-03-11T09:10:09.497Z,3.00
2019-03-11T09:11:09.679Z,2.80
2019-03-11T09:12:09.865Z,3.40
2019-03-11T09:13:10.043Z,3.10
2019-03-11T09:14:10.225Z,3.20
2019-03-11T09:15:10.412Z,3.10
2019-03-11T09:16:10.601Z,2.70
2019-03-11T09:17:10.782Z,3.10
2019-03-11T09:18:10.967Z,2.60
2019-03-11T09:19:11.146Z,2.90
2019-03-11T09:20:11.325Z,3.40
2019-03-11T09:21:11.516Z,3.20
2019-03-11T09:22:11.702Z,3.20
2019-03-11T09:23:11.885Z,3.10
2019-03-11T09:24:19.195Z,3.00
2019-03-11T09:25:12.248Z,2.70
2019-03-11T09:26:12.429Z,2.60
2019-03-11T09:27:12.609Z,2.70
2019-03-11T09:28:12.815Z,2.70
2019-03-11T09:29:12.968Z,2.80
2019-03-11T09:30:13.150Z,2.80
2019-03-11T09:31:13.329Z,2.70
2019-03-11T09:32:13.510Z,2.80
2019-03-11T09:33:13.695Z,2.70
2019-03-11T09:34:13.869Z,2.70
2019-03-11T09:35:14.046Z,2.70
2019-03-11T09:36:14.239Z,2.70
2019-03-11T09:37:14.413Z,2.30
2019-03-11T09:38:14.597Z,2.60
2019-03-11T09:39:14.782Z,2.60
2019-03-11T09:40:14.970Z,2.80
2019-03-11T09:41:15.146Z,2.50
2019-03-11T09:42:15.326Z,2.30
2019-03-11T09:43:15.514Z,2.40
2019-03-11T09:44:15.698Z,2.20
2019-03-11T09:45:15.907Z,2.00
2019-03-11T09:46:16.073Z,2.20
2019-03-11T09:47:16.260Z,1.80
2019-03-11T09:48:16.440Z,2.20
2019-03-11T09:49:16.624Z,2.20
2019-03-11T09:50:16.826Z,2.20
2019-03-11T09:51:17.017Z,1.80
2019-03-11T09:52:17.198Z,1.80
2019-03-11T09:53:17.388Z,1.50
2019-03-11T09:54:17.570Z,1.70
2019-03-11T09:55:17.759Z,1.60
2019-03-11T09:56:17.946Z,1.70
2019-03-11T09:57:18.134Z,1.60
2019-03-11T09:58:18.328Z,1.50
2019-03-11T09:59:18.520Z,1.60
2019-03-11T10:00:18.715Z,1.90
2019-03-11T10:01:18.926Z,1.70
2019-03-11T10:02:19.110Z,1.60
2019-03-11T10:03:19.311Z,1.70
2019-03-11T10:04:19.516Z,1.70
2019-03-11T10:05:19.706Z,1.80
2019-03-11T10:06:19.898Z,2.00
2019-03-11T10:07:20.081Z,1.60
2019-03-11T10:08:20.265Z,2.10
2019-03-11T10:09:20.469Z,1.90
2019-03-11T10:10:20.649Z,2.60
2019-03-11T10:11:20.828Z,2.70
2019-03-11T10:12:21.014Z,2.20
2019-03-11T10:13:21.202Z,1.70
2019-03-11T10:14:21.394Z,2.30
2019-03-11T10:15:21.589Z,2.10
2019-03-11T10:16:21.775Z,2.70
2019-03-11T10:17:21.963Z,1.80
2019-03-11T10:18:22.174Z,2.30
2019-03-11T10:19:22.350Z,2.10
2019-03-11T10:20:22.539Z,1.90
2019-03-11T10:21:22.720Z,2.10
2019-03-11T10:22:22.909Z,2.20
2019-03-11T10:23:31.785Z,2.20
2019-03-11T10:24:23.286Z,2.40
2019-03-11T10:25:23.543Z,2.10
2019-03-11T10:26:23.659Z,1.70
2019-03-11T10:27:23.844Z,1.90
2019-03-11T10:28:24.032Z,1.90
2019-03-11T10:29:24.210Z,2.00
2019-03-11T10:30:24.600Z,2.10
2019-03-11T10:31:24.529Z,2.60
2019-03-11T10:32:24.714Z,2.20
2019-03-11T10:33:24.902Z,2.40
2019-03-11T10:34:25.085Z,2.10
2019-03-11T10:35:33.013Z,2.40
2019-03-11T10:36:25.459Z,2.40
2019-03-11T10:37:25.633Z,2.80
2019-03-11T10:38:25.832Z,2.50
2019-03-11T10:39:26.017Z,2.40
2019-03-11T10:40:26.197Z,2.50
2019-03-11T10:41:26.379Z,2.90
2019-03-11T10:42:26.571Z,2.70
2019-03-11T10:43:26.758Z,2.30
2019-03-11T10:44:26.947Z,2.50
2019-03-11T10:45:31.651Z,2.30
2019-03-11T10:46:27.314Z,2.20
2019-03-11T10:47:27.493Z,2.40
2019-03-11T10:48:36.623Z,2.70
2019-03-11T10:49:27.862Z,2.50
2019-03-11T10:50:28.042Z,2.10
2019-03-11T10:51:28.229Z,1.90
2019-03-11T10:52:28.419Z,2.50
2019-03-11T10:53:28.604Z,2.50
2019-03-11T10:54:28.784Z,3.90
2019-03-11T10:55:28.976Z,2.10
2019-03-11T10:56:29.158Z,3.00
2019-03-11T10:57:29.341Z,2.60
2019-03-11T10:58:29.525Z,2.40
2019-03-11T10:59:29.709Z,2.20
2019-03-11T11:00:29.894Z,2.10
2019-03-11T11:01:30.065Z,3.00
2019-03-11T11:02:30.253Z,1.90
2019-03-11T11:03:30.973Z,2.10
2019-03-11T11:04:30.620Z,2.00
2019-03-11T11:05:30.810Z,1.90
2019-03-11T11:06:31.011Z,2.20
2019-03-11T11:07:31.176Z,2.10
2019-03-11T11:08:31.369Z,1.80
2019-03-11T11:09:31.544Z,2.90
2019-03-11T11:10:31.726Z,2.30
2019-03-11T11:11:31.919Z,1.70
2019-03-11T11:12:32.108Z,2.20
2019-03-11T11:13:32.284Z,2.70
2019-03-11T11:14:32.474Z,2.50
2019-03-11T11:15:32.667Z,1.80
2019-03-11T11:16:32.854Z,2.00
2019-03-11T11:17:33.043Z,3.60
2019-03-11T11:18:33.234Z,2.30
2019-03-11T11:19:33.426Z,2.20
2019-03-11T11:20:33.610Z,4.00
2019-03-11T11:21:33.802Z,3.20
2019-03-11T11:22:33.984Z,2.20
2019-03-11T11:23:34.176Z,2.30
2019-03-11T11:24:34.362Z,2.10
2019-03-11T11:25:34.561Z,2.20
2019-03-11T11:26:34.735Z,2.20
2019-03-11T11:27:36.616Z,3.30
2019-03-11T11:28:35.114Z,2.20
2019-03-11T11:29:35.298Z,2.10
2019-03-11T11:30:35.499Z,2.10
2019-03-11T11:31:35.672Z,2.20
2019-03-11T11:32:35.861Z,2.00
2019-03-11T11:33:36.040Z,2.30
2019-03-11T11:34:36.250Z,2.10
2019-03-11T11:35:36.434Z,2.10
2019-03-11T11:36:36.622Z,2.20
2019-03-11T11:37:36.801Z,2.00
2019-03-11T11:38:36.992Z,2.10
2019-03-11T11:39:37.175Z,2.10
2019-03-11T11:40:37.354Z,2.00
2019-03-11T11:41:37.553Z,2.00
2019-03-11T11:42:37.732Z,2.10
2019-03-11T11:43:37.919Z,2.40
2019-03-11T11:44:38.106Z,1.70
2019-03-11T11:45:38.286Z,2.30
2019-03-11T11:46:38.469Z,2.30
2019-03-11T11:47:38.652Z,3.80
2019-03-11T11:48:38.845Z,2.80
2019-03-11T11:49:39.022Z,2.50
2019-03-11T11:50:39.247Z,2.70
2019-03-11T11:51:39.391Z,2.50
2019-03-11T11:52:39.575Z,2.90
2019-03-11T11:53:39.752Z,3.00
2019-03-11T11:54:39.946Z,2.80
2019-03-11T11:55:40.148Z,3.10
2019-03-11T11:56:40.341Z,3.00
2019-03-11T11:57:40.526Z,2.60
2019-03-11T11:58:40.987Z,2.80
2019-03-11T11:59:40.890Z,3.20
2019-03-11T12:00:41.070Z,3.00
2019-03-11T12:01:41.258Z,2.90
2019-03-11T12:02:41.426Z,2.60
2019-03-11T12:03:41.624Z,2.70
2019-03-11T12:04:41.803Z,2.40
2019-03-11T12:05:41.994Z,3.50
2019-03-11T12:06:42.182Z,3.60
2019-03-11T12:07:42.366Z,4.90
2019-03-11T12:08:42.553Z,3.50
2019-03-11T12:09:42.741Z,3.00
2019-03-11T12:10:42.924Z,3.30
2019-03-11T12:11:43.175Z,3.00
2019-03-11T12:12:43.273Z,3.70
2019-03-11T12:13:43.460Z,3.20
2019-03-11T12:14:43.632Z,3.30
2019-03-11T12:15:43.813Z,4.90
2019-03-11T12:16:44.006Z,4.00
2019-03-11T12:17:44.182Z,3.10
2019-03-11T12:18:44.364Z,3.10
2019-03-11T12:19:44.558Z,2.90
2019-03-11T12:20:44.748Z,2.50
2019-03-11T12:21:44.927Z,2.70
2019-03-11T12:22:45.184Z,2.90
2019-03-11T12:23:46.658Z,2.70
2019-03-11T12:24:45.490Z,2.30
2019-03-11T12:25:45.683Z,2.40
2019-03-11T12:26:46.244Z,2.70
2019-03-11T12:27:53.788Z,2.60
2019-03-11T12:28:46.232Z,2.70
2019-03-11T12:29:46.423Z,3.70
2019-03-11T12:30:46.614Z,3.00
2019-03-11T12:31:46.789Z,3.50
2019-03-11T12:32:46.963Z,4.10
2019-03-11T12:33:47.151Z,3.40
2019-03-11T12:34:47.328Z,2.60
2019-03-11T12:35:47.529Z,2.50
2019-03-11T12:36:47.691Z,2.40
2019-03-11T12:37:47.886Z,2.30
2019-03-11T12:38:48.066Z,2.20
2019-03-11T12:39:48.245Z,2.60
2019-03-11T12:40:48.432Z,2.30
2019-03-11T12:41:48.609Z,2.80
2019-03-11T12:42:48.796Z,2.30
2019-03-11T12:43:48.969Z,2.40
2019-03-11T12:44:49.165Z,2.20
2019-03-11T12:45:49.352Z,2.40
2019-03-11T12:46:49.540Z,2.20
2019-03-11T12:47:49.725Z,2.70
2019-03-11T12:48:49.913Z,2.30
2019-03-11T12:49:50.096Z,2.70
2019-03-11T12:50:50.285Z,2.30
2019-03-11T12:51:50.600Z,2.60
2019-03-11T12:52:50.656Z,2.20
2019-03-11T12:53:50.840Z,2.40
2019-03-11T12:54:51.023Z,2.30
2019-03-11T12:55:51.205Z,2.40
2019-03-11T12:56:51.406Z,2.20
2019-03-11T12:57:51.587Z,2.30
2019-03-11T12:58:51.766Z,2.40
2019-03-11T12:59:51.959Z,2.30
2019-03-11T13:00:52.137Z,2.30
2019-03-11T13:01:52.340Z,2.40
2019-03-11T13:02:52.519Z,2.50
2019-03-11T13:03:52.706Z,2.60
2019-03-11T13:04:52.887Z,2.40
2019-03-11T13:05:53.070Z,2.50
2019-03-11T13:06:53.260Z,3.20
2019-03-11T13:07:53.440Z,2.90
2019-03-11T13:08:53.640Z,4.40
2019-03-11T13:09:53.813Z,3.40
2019-03-11T13:10:53.997Z,3.80
2019-03-11T13:11:54.206Z,3.50
2019-03-11T13:12:54.379Z,3.30
2019-03-11T13:13:54.563Z,2.70
2019-03-11T13:14:54.758Z,4.20
2019-03-11T13:15:54.934Z,5.40
2019-03-11T13:16:55.115Z,3.80
2019-03-11T13:17:55.303Z,5.80
2019-03-11T13:18:55.493Z,2.90
2019-03-11T13:19:55.675Z,2.70
2019-03-11T13:20:55.860Z,3.60